Station info - map view · info · telemetry · weather · raw · status · beacons · messages · bulletins · browse · moving · my account
Callsign, ship name or locator: Clear       
It is possible to search using wildcards (*?) after a prefix. Example: OH*
APRS station DL7MM-9 - show graphs
Map loading...
Mic-E message: Off duty
Location: 52°03.03' N 7°21.04' E - locator JO32QB22BC - show map - static map
0.5 miles Southwest bearing 221° from Laer, Regierungsbezirk Münster, North Rhine-Westphalia, Germany [?]
2.9 miles Southeast bearing 138° from Horstmar, Regierungsbezirk Münster, North Rhine-Westphalia, Germany
37.1 miles North bearing 353° from Dortmund, North Rhine-Westphalia, Germany
43.9 miles North bearing 19° from Essen, North Rhine-Westphalia, Germany
Last position: 2017-05-04 12:39:01 EDT (25d 12h46m ago)
2017-05-04 18:39:01 CEST local time at Laer, Germany [?]
Altitude: 282 ft
Course:
Speed: 6 MPH
Device: Kenwood: TM-D710 (rig)
Last path: DL7MM-9>URPSP3 via DB0DY*,WIDE1,WIDE2-1,qAR,DB0DOS-10 (good)
Positions stored: 6796
Stations near current position of DL7MM-9 - show more
callsign distance last heard - EDT      callsign distance last heard - EDT
DK5CM-95.5 miles 298°2017-05-28 08:52:01 DP7D5.6 miles 314°2017-05-30 01:25:11
DB0RTV B9.0 miles 331°2017-05-30 01:12:34 DB0RTV-B9.0 miles 331°2017-05-30 01:12:44
DC2EH-69.3 miles 153°2017-05-26 14:49:59 DG6YY-99.6 miles 114°2017-05-30 01:24:13
DO9LL10.5 miles 259°2017-05-26 13:00:01 EL-DO0LL10.6 miles 259°2017-05-30 01:15:39
EL-DO9LL10.6 miles 259°2017-05-26 13:20:52 DO0LL10.6 miles 259°2017-05-26 13:00:01
DK1HI-1011.2 miles 44°2017-05-26 06:10:13 DK1HI-911.3 miles 44°2017-05-26 08:44:52
DG7YEO-911.3 miles 121°2017-05-22 11:50:41 DL4YAY-111.4 miles 118°2017-04-30 10:34:49
DL8NY-911.6 miles 10°2017-05-07 15:08:29 DL8NY-811.6 miles 10°2017-05-07 15:09:59
DB5LK-1511.6 miles 93°2017-05-30 01:07:39 DG7YEO-1311.9 miles 110°2017-05-30 01:17:06
DK4WO11.9 miles 97°2017-05-25 19:26:12 GAS-912.2 miles 103°2017-05-21 00:49:10
Stations which heard DL7MM-9 directly on radio –
callsign pkts first heard - EDT last heard longest (tx => rx) longest at - EDT
DB0LMM 9 2017-05-03 09:48:11 2017-05-04 07:20:03 JO51SK > JO61EI 37.8 miles 101° 2017-05-04 07:20:03
DB0SPN 12 2017-05-03 04:54:03 2017-05-03 05:51:54 JO61UU > JO71ER 27.7 miles 111° 2017-05-03 05:51:54
DB0KH 2 2017-05-04 10:10:47 2017-05-04 10:18:49 JO41PJ > JO40RV 33.2 miles 167° 2017-05-04 10:18:49
DB0GPS 1 2017-05-04 10:14:49 2017-05-04 10:14:49 JO41PI > JO41PU 35.7 miles 3° 2017-05-04 10:14:49
DB0END 1 2017-05-04 11:39:08 2017-05-04 11:39:08 JO31TN > JO31PH 22.4 miles 222° 2017-05-04 11:39:08
DB0RIE 14 2017-05-04 07:17:01 2017-05-04 08:02:11 JO51IK > JO50NV 43.7 miles 153° 2017-05-04 08:02:11
DM2HB 9 2017-05-04 10:42:54 2017-05-04 11:20:02 JO41JN > JO41EQ 21.6 miles 297° 2017-05-04 10:42:54
DB0DY 3 2017-05-04 12:09:15 2017-05-04 12:39:01 JO32QB > JO32WE 24.8 miles 71° 2017-05-04 12:39:01
DB0HRC-10 8 2017-05-04 06:38:24 2017-05-04 07:15:13 JO51SL > JO61AG 26.6 miles 123° 2017-05-04 07:15:13
DB0WBE 8 2017-05-03 06:57:57 2017-05-03 09:30:52 JO61LN > JO61SL 23.0 miles 101° 2017-05-03 09:30:52
DB0LPZ 55 2017-05-03 09:42:09 2017-05-04 07:14:02 JO51SL > JO61FI 40.5 miles 102° 2017-05-04 07:14:02
DB0ABB 9 2017-05-04 08:28:19 2017-05-04 08:56:25 JO51BJ > JO41UO 22.2 miles 311° 2017-05-04 08:28:19
DB0BI 8 2017-05-04 10:49:55 2017-05-04 11:13:00 JO41BN > JO42FA 34.8 miles 23° 2017-05-04 11:13:00
DL5YAD-5 12 2017-05-04 11:26:03 2017-05-04 11:48:08 JO31WM > JO31TO 13.0 miles 293° 2017-05-04 11:26:03
DB8AS-10 9 2017-05-04 08:35:18 2017-05-04 10:13:48 JO41XJ > JO41RH 21.6 miles 256° 2017-05-04 08:35:18
DB0DRI 5 2017-05-04 10:15:48 2017-05-04 11:00:58 JO41FO > JO41MS 30.8 miles 66° 2017-05-04 11:00:58
DB0HAT 8 2017-05-04 11:17:03 2017-05-04 11:57:11 JO41AN > JO31VQ 15.0 miles 308° 2017-05-04 11:17:03
DJ7CF-10 5 2017-05-04 10:12:49 2017-05-04 10:28:52 JO41NL > JO41RK 16.6 miles 100° 2017-05-04 10:28:52
DB0PIB 1 2017-05-03 05:29:28 2017-05-03 05:29:28 JO71AS > JO71EC 48.2 miles 165° 2017-05-03 05:29:28
DB0WOF-10 31 2017-05-03 09:49:10 2017-05-04 06:10:27 JO61IL > JO61DQ 24.2 miles 300° 2017-05-03 09:49:10
DL4HUF-10 12 2017-05-04 06:32:34 2017-05-04 07:10:02 JO51TM > JO51WL 12.1 miles 102° 2017-05-04 07:10:02
DB0ERZ 1 2017-05-04 06:48:55 2017-05-04 06:48:55 JO51WL > JO60HK 77.3 miles 155° 2017-05-04 06:48:55
DB0DOS-10 3 2017-05-04 12:13:13 2017-05-04 12:26:33 JO32QB > JO42AE 29.8 miles 72° 2017-05-04 12:26:33
DL1HUB-10 60 2017-05-03 10:09:32 2017-05-04 07:12:02 JO51SL > JO61BM 22.7 miles 84° 2017-05-04 07:12:02
DB0OHA-10 5 2017-05-04 08:13:14 2017-05-04 08:42:20 JO41WK > JO51EP 25.3 miles 54° 2017-05-04 08:42:20
DB0LOS 5 2017-05-03 05:31:27 2017-05-03 05:57:56 JO61TU > JO72AH 37.4 miles 26° 2017-05-03 05:57:56
DB0SAX 5 2017-05-03 07:00:49 2017-05-03 09:44:10 JO61MN > JO61LC 32.4 miles 185° 2017-05-03 07:00:49
DB0NLH 13 2017-05-04 10:41:54 2017-05-04 12:34:58 JO41KM > JO42DC 46.3 miles 329° 2017-05-04 10:41:54
DO2JMG 1 2017-05-04 10:57:57 2017-05-04 10:57:57 JO41FO > JO42EC 35.1 miles 353° 2017-05-04 10:57:57
DO1AA-10 2 2017-05-04 06:09:27 2017-05-04 06:10:47 JO61DO > JO61FV 21.4 miles 21° 2017-05-04 06:09:27
DB0RVB-10 3 2017-05-04 07:52:09 2017-05-04 08:30:17 JO51AJ > JO51GO 24.7 miles 51° 2017-05-04 08:30:17
DB0NOS 7 2017-05-04 10:40:54 2017-05-04 11:59:10 JO31TT > JO41HW 44.9 miles 79° 2017-05-04 11:59:10
DB0ERF-10 13 2017-05-04 07:22:03 2017-05-04 08:25:16 JO51CJ > JO50MX 48.6 miles 129° 2017-05-04 08:25:16
DB0KU-10 1 2017-05-04 11:43:07 2017-05-04 11:43:07 JO31UO > JO41BE 32.9 miles 146° 2017-05-04 11:43:07
DB0NX-10 2 2017-05-04 11:39:06 2017-05-04 11:51:09 JO31TQ > JO31TH 27.3 miles 184° 2017-05-04 11:51:09
DL2YCP-10 5 2017-05-04 11:29:04 2017-05-04 12:00:10 JO31VM > JO31SR 18.7 miles 317° 2017-05-04 11:29:04
DL1ZAX-10 23 2017-05-04 08:59:23 2017-05-04 10:09:47 JO41QH > JO41SG 9.7 miles 104° 2017-05-04 10:09:47
DM0SVX-10 7 2017-05-04 06:34:51 2017-05-04 06:53:00 JO51WL > JO51XL 4.5 miles 81° 2017-05-04 06:53:00
DB0EB-10 3 2017-05-04 08:23:16 2017-05-04 08:37:19 JO51CJ > JO41WU 33.7 miles 332° 2017-05-04 08:23:16
DM2HB-1 2 2017-05-04 10:51:56 2017-05-04 11:01:58 JO41HO > JO41EQ 13.4 miles 296° 2017-05-04 10:51:56
DB0USL-2 2 2017-05-04 08:46:21 2017-05-04 08:55:23 JO41WJ > JO41TQ 19.5 miles 334° 2017-05-04 08:46:21

Only position packets which were originated by the station are shown here. The range statistics show some extra long hops, because some digipeaters do not correctly add themselves to the digipeater path. Please check the raw packets.
About this site
This page shows real-time information collected from the Automatic Position Reporting System Internet network (APRS-IS). APRS is used by amateur (ham) radio operators to transmit real-time position information, weather data, telemetry and messages over the radio. A vehicle equipped with a GPS receiver, a VHF transmitter or HF transceiver and a small computer device called a tracker transmits it's location, speed and course in a small data packet, which is then received by a nearby iGate receiving site which forwards the packet on the Internet. Systems connected to the Internet can send information on the APRS-IS without a radio transmitter, or collect and display information transmitted anywhere in the world.
FAQ · Blog · Discussion group · Linking to aprs.fi · AIS sites · Service status · Database statistics · Advertising on aprs.fi · Technical details · API · Change log · Planned changes · Credits and thanks · Terms Of Service · iPhone/iPad APRS